Terminal Aerodrome Forecast
Issued by NWS

Current Version | Previous Version | Text Only | Print | Product List | Glossary On
Versions: 1 2 3 4 5 6 7 8 9 10 11 12 13 14 15 16
000
FTUS44 KBMX 031133
TAFTCL
TAF
KTCL 031133Z 0312/0412 00000KT 4SM BR SKC
      TEMPO 0312/0313 2SM BR
     FM031400 33002KT P6SM BKN120
     FM032000 33006KT P6SM SCT040 BKN250=

USA.gov is the U.S. government's official web portal to all federal, state and local government web resources and services.